Time;durP1;ratioP1;P1;durP2;ratioP2;P2;SDS_P1;SDS_P2;PMS_P1;PMS_P2;Temp;Humidity;BMP_temperature;BMP_pressure;BME280_temperature;BME280_humidity;BME280_pressure;Samples;Min_cycle;Max_cycle;Signal;HPM_P1;HPM_P2
2021/04/12 00:02:29;;;;;;;25.70;13.68;;;;;;;5.04;51.32;101499.05;1713308;83;21178;-40
2021/04/12 00:05:29;;;;;;;24.30;13.13;;;;;;;5.18;51.00;101498.92;1706738;84;21402;-40
2021/04/12 00:08:22;;;;;;;31.25;13.83;;;;;;;5.35;50.63;101493.25;1706282;84;21104;-41
2021/04/12 00:11:07;;;;;;;30.27;14.87;;;;;;;5.36;51.21;101492.41;1706748;84;21442;-41
2021/04/12 00:13:42;;;;;;;25.65;13.28;;;;;;;5.36;51.21;101492.41;1686997;84;21298;-40
2021/04/12 00:16:44;;;;;;;26.27;14.10;;;;;;;5.37;51.00;101483.02;1687754;84;21106;-41
2021/04/12 00:19:31;;;;;;;25.23;14.38;;;;;;;5.36;51.17;101492.41;1706211;82;20972;-41
2021/04/12 00:22:16;;;;;;;31.57;13.60;;;;;;;5.38;51.05;101474.04;1706212;84;21508;-41
2021/04/12 00:24:51;;;;;;;26.15;13.75;;;;;;;5.46;51.12;101478.93;1706222;84;21671;-41
2021/04/12 00:27:33;;;;;;;23.90;12.85;;;;;;;5.48;51.12;101465.25;1706226;84;20951;-41
2021/04/12 00:30:22;;;;;;;26.85;14.43;;;;;;;5.51;51.08;101461.45;1706343;84;21552;-45
2021/04/12 00:33:16;;;;;;;23.35;13.22;;;;;;;5.55;51.42;101456.81;1706261;83;21437;-41
2021/04/12 00:35:51;;;;;;;28.55;13.78;;;;;;;5.57;51.23;101458.98;1706182;83;21035;-41
2021/04/12 00:38:38;;;;;;;25.20;13.32;;;;;;;5.58;51.34;101453.02;1687069;84;21040;-41
2021/04/12 00:41:27;;;;;;;31.70;13.40;;;;;;;5.60;51.29;101451.33;1686483;84;21090;-41
2021/04/12 00:44:24;;;;;;;26.55;14.40;;;;;;;5.67;51.28;101446.74;1706099;84;21076;-40
2021/04/12 00:47:12;;;;;;;24.43;14.35;;;;;;;5.67;51.28;101446.74;1706211;84;21395;-42
2021/04/12 00:50:24;;;;;;;26.62;14.58;;;;;;;5.73;51.60;101450.73;1644500;84;21197;-41
2021/04/12 00:53:08;;;;;;;29.60;13.80;;;;;;;5.79;51.49;101442.23;1706309;82;21590;-41
2021/04/12 00:55:46;;;;;;;29.42;14.85;;;;;;;5.89;51.30;101440.69;1706268;83;21675;-42
2021/04/12 00:59:04;;;;;;;28.10;14.18;;;;;;;5.99;50.96;101436.17;1695761;84;21174;-41
2021/04/12 01:01:46;;;;;;;25.80;13.50;;;;;;;6.11;50.62;101428.23;1708498;83;21315;-41
2021/04/12 01:04:44;;;;;;;23.62;13.18;;;;;;;6.31;50.20;101422.09;1847666;76;22744;-41
2021/04/12 01:07:31;;;;;;;33.05;14.43;;;;;;;6.40;49.37;101423.53;1817748;78;21026;-42
2021/04/12 01:10:24;;;;;;;24.45;13.72;;;;;;;6.67;48.42;101425.16;1818017;79;21196;-42
2021/04/12 01:13:29;;;;;;;30.00;14.65;;;;;;;6.89;47.71;101425.03;1817611;79;20931;-40
2021/04/12 01:16:12;;;;;;;29.67;14.07;;;;;;;7.08;46.91;101419.67;1817700;78;21022;-42
2021/04/12 01:18:53;;;;;;;24.18;13.88;;;;;;;7.23;46.85;101422.84;1807057;79;20990;-41
2021/04/12 01:21:56;;;;;;;25.43;14.28;;;;;;;7.34;46.46;101426.81;1817770;79;21077;-41
2021/04/12 01:25:06;;;;;;;26.65;13.90;;;;;;;7.34;46.46;101426.81;1817022;79;21360;-40
2021/04/12 01:27:56;;;;;;;29.05;14.68;;;;;;;7.33;46.65;101421.23;1815525;79;21014;-42
2021/04/12 01:30:58;;;;;;;27.40;15.08;;;;;;;7.28;46.82;101416.02;1813256;79;21144;-42
2021/04/12 01:34:16;;;;;;;24.90;14.53;;;;;;;7.25;47.30;101415.14;1784176;80;21014;-40
2021/04/12 01:37:02;;;;;;;29.30;15.08;;;;;;;7.19;47.79;101414.20;1785549;80;21006;-42
2021/04/12 01:39:58;;;;;;;27.77;15.20;;;;;;;7.13;48.40;101407.70;1785771;79;21193;-41
2021/04/12 01:42:50;;;;;;;25.35;14.33;;;;;;;7.10;48.89;101408.11;1785442;80;21002;-41
2021/04/12 01:45:32;;;;;;;24.18;14.93;;;;;;;7.04;48.90;101400.73;1785393;80;21021;-41
2021/04/12 01:48:08;;;;;;;29.80;15.20;;;;;;;7.00;48.99;101394.27;1785515;80;21065;-41
2021/04/12 01:50:42;;;;;;;;;;;;;;;7.00;48.93;101405.86;1788182;79;20982;-41
2021/04/12 01:53:18;;;;;;;26.68;14.50;;;;;;;6.98;49.40;101399.39;1784448;80;21428;-41
2021/04/12 01:56:16;;;;;;;27.82;14.73;;;;;;;6.96;49.47;101392.52;1785503;80;21005;-41
2021/04/12 01:58:58;;;;;;;30.85;15.00;;;;;;;6.94;49.53;101391.19;1785569;80;20934;-40
2021/04/12 02:01:47;;;;;;;28.05;14.85;;;;;;;6.93;49.69;101391.16;1785465;79;21041;-40
2021/04/12 02:04:26;;;;;;;27.50;14.58;;;;;;;6.93;49.72;101395.91;1754066;80;21607;-41
2021/04/12 02:07:15;;;;;;;35.17;14.95;;;;;;;6.95;49.82;101393.36;1785306;79;21276;-41
2021/04/12 02:10:14;;;;;;;25.88;14.40;;;;;;;6.94;49.95;101388.63;1769854;80;20932;-42
2021/04/12 02:13:03;;;;;;;27.40;14.13;;;;;;;6.95;49.97;101382.63;1785511;80;20999;-40
2021/04/12 02:15:53;;;;;;;23.65;13.48;;;;;;;6.97;49.50;101387.80;1784908;80;20986;-40
2021/04/12 02:19:08;;;;;;;27.58;14.05;;;;;;;6.99;49.90;101378.38;1785019;80;20998;-41
2021/04/12 02:21:41;;;;;;;25.02;13.90;;;;;;;6.98;50.11;101382.66;1784965;80;21357;-41
2021/04/12 02:24:20;;;;;;;30.20;15.70;;;;;;;6.97;50.35;101381.37;1784837;80;21010;-41
2021/04/12 02:27:16;;;;;;;28.55;14.28;;;;;;;6.97;50.97;101378.79;1784998;80;21582;-41
2021/04/12 02:30:05;;;;;;;25.68;13.95;;;;;;;6.93;51.83;101378.29;1785024;80;21025;-41
2021/04/12 02:32:59;;;;;;;29.42;15.32;;;;;;;6.85;53.22;101375.66;1784925;80;20918;-41
2021/04/12 02:35:36;;;;;;;29.52;14.85;;;;;;;6.72;54.63;101375.48;1739688;80;21380;-41
2021/04/12 02:38:24;;;;;;;31.62;16.15;;;;;;;6.58;55.54;101379.62;1784877;79;21472;-41
2021/04/12 02:41:13;;;;;;;26.20;15.38;;;;;;;6.42;56.53;101378.11;1784914;80;20923;-40
2021/04/12 02:44:05;;;;;;;23.62;14.50;;;;;;;6.27;58.17;101375.32;1781844;80;20951;-41
2021/04/12 02:47:10;;;;;;;25.23;14.30;;;;;;;6.13;59.31;101373.84;1785022;80;21521;-45
2021/04/12 02:50:12;;;;;;;29.90;15.43;;;;;;;5.99;60.43;101370.62;1785114;79;21069;-42
2021/04/12 02:53:03;;;;;;;32.25;15.72;;;;;;;5.86;61.32;101368.28;1784886;80;21030;-42
2021/04/12 02:56:28;;;;;;;27.80;16.48;;;;;;;5.75;62.08;101364.26;1784930;80;21077;-42
2021/04/12 02:59:25;;;;;;;29.42;15.53;;;;;;;5.66;62.55;101352.97;1784874;80;21086;-42
2021/04/12 03:02:49;;;;;;;31.15;15.58;;;;;;;5.55;63.73;101352.78;1785141;80;20938;-43
2021/04/12 03:05:37;;;;;;;28.27;16.32;;;;;;;5.48;63.79;101353.09;1784916;80;21202;-42
2021/04/12 03:08:36;;;;;;;27.13;15.30;;;;;;;5.43;64.95;101356.01;1784832;80;21061;-42
2021/04/12 03:11:36;;;;;;;28.92;16.25;;;;;;;5.37;66.00;101355.48;1756026;80;21001;-46
2021/04/12 03:14:32;;;;;;;29.82;16.27;;;;;;;5.32;66.30;101353.25;1784895;80;21018;-43
2021/04/12 03:17:27;;;;;;;33.77;16.57;;;;;;;5.27;67.07;101350.59;1785183;80;20907;-42
2021/04/12 03:20:27;;;;;;;28.55;15.13;;;;;;;5.22;68.26;101347.08;1784866;79;21260;-43
2021/04/12 03:23:36;;;;;;;27.32;16.00;;;;;;;5.14;68.71;101348.22;1780082;80;20978;-42
2021/04/12 03:26:47;;;;;;;35.73;16.27;;;;;;;5.10;69.24;101342.59;1784891;80;21038;-41
2021/04/12 03:29:46;;;;;;;27.00;14.90;;;;;;;5.10;69.73;101344.31;1784826;79;21006;-41
2021/04/12 03:32:49;;;;;;;29.98;15.38;;;;;;;5.11;70.12;101337.91;1756020;80;21037;-41
2021/04/12 03:35:36;;;;;;;29.05;15.93;;;;;;;5.14;70.19;101340.96;1784893;80;21187;-42
2021/04/12 03:38:30;;;;;;;29.42;15.93;;;;;;;5.20;70.63;101351.77;1758983;80;21511;-41
2021/04/12 03:41:21;;;;;;;30.88;16.02;;;;;;;5.23;70.78;101351.81;1784949;79;20927;-41
2021/04/12 03:44:12;;;;;;;30.70;14.90;;;;;;;5.22;70.66;101349.66;1783872;79;21531;-42
2021/04/12 03:47:24;;;;;;;28.32;15.28;;;;;;;5.25;70.68;101357.84;1784943;80;20931;-42
2021/04/12 03:50:46;;;;;;;29.87;15.13;;;;;;;5.29;70.70;101354.48;1784858;80;21247;-42
2021/04/12 03:53:44;;;;;;;27.67;15.88;;;;;;;5.32;70.52;101359.67;1784806;80;21053;-40
2021/04/12 03:56:33;;;;;;;26.68;15.28;;;;;;;5.34;70.64;101356.71;1784860;80;20927;-41
2021/04/12 03:59:14;;;;;;;25.75;14.78;;;;;;;5.36;70.73;101352.90;1784795;80;21033;-43
2021/04/12 04:02:11;;;;;;;24.72;14.00;;;;;;;5.38;70.76;101361.05;1784948;80;20936;-42
2021/04/12 04:05:26;;;;;;;24.52;15.08;;;;;;;5.42;70.87;101362.84;1784793;80;20923;-43
2021/04/12 04:08:26;;;;;;;27.50;16.20;;;;;;;5.42;70.87;101362.84;1784843;80;20970;-43
2021/04/12 04:11:43;;;;;;;27.67;15.85;;;;;;;5.44;70.74;101367.61;1784832;80;21240;-42
2021/04/12 04:14:22;;;;;;;27.23;15.17;;;;;;;5.47;70.66;101356.50;1785036;80;20974;-43
2021/04/12 04:17:22;;;;;;;25.45;14.58;;;;;;;5.50;70.61;101353.98;1784877;80;20927;-42
2021/04/12 04:20:25;;;;;;;28.07;15.10;;;;;;;5.50;70.70;101345.00;1777943;80;21394;-43
2021/04/12 04:23:19;;;;;;;26.90;13.78;;;;;;;5.54;70.85;101344.64;1784789;80;21006;-42
2021/04/12 04:26:01;;;;;;;25.62;15.48;;;;;;;5.54;70.63;101328.79;1784796;80;21544;-44
2021/04/12 04:28:50;;;;;;;29.42;15.58;;;;;;;5.60;70.42;101311.34;1784853;79;20971;-41
2021/04/12 04:31:53;;;;;;;25.60;15.05;;;;;;;5.65;70.26;101326.40;1783865;79;21555;-42
2021/04/12 04:34:34;;;;;;;27.32;14.65;;;;;;;5.74;70.21;101335.55;1784843;80;22163;-41
2021/04/12 04:37:43;;;;;;;28.52;15.70;;;;;;;5.80;69.66;101346.77;1784942;80;20946;-42
2021/04/12 04:40:46;;;;;;;27.85;14.60;;;;;;;5.80;69.66;101346.77;1784839;80;20991;-41
2021/04/12 04:43:42;;;;;;;27.75;13.28;;;;;;;5.83;69.52;101342.95;1784801;79;21057;-41
2021/04/12 04:46:38;;;;;;;23.03;10.87;;;;;;;5.85;69.48;101337.00;1785051;79;20951;-41
2021/04/12 04:49:50;;;;;;;25.68;14.50;;;;;;;5.87;69.45;101343.03;1784933;80;21372;-41
2021/04/12 04:52:39;;;;;;;27.05;14.55;;;;;;;5.88;69.47;101336.17;1784818;80;20931;-42
2021/04/12 04:55:14;;;;;;;27.02;14.05;;;;;;;5.87;69.49;101328.90;1784902;80;20994;-41
2021/04/12 04:58:07;;;;;;;;;;;;;;;5.88;69.62;101326.77;1787447;80;21160;-41
2021/04/12 05:01:16;;;;;;;26.60;14.15;;;;;;;5.91;69.79;101338.78;1784865;80;20183;-40
2021/04/12 05:04:07;;;;;;;27.50;14.25;;;;;;;5.90;70.02;101335.77;1786651;79;21380;-40
2021/04/12 05:06:43;;;;;;;26.12;14.63;;;;;;;5.89;70.00;101329.78;1783213;80;21062;-41
2021/04/12 05:09:50;;;;;;;30.15;15.45;;;;;;;5.88;70.10;101329.74;1780440;80;21168;-41
2021/04/12 05:12:36;;;;;;;26.90;14.25;;;;;;;5.87;70.19;101326.73;1780394;80;21030;-41
2021/04/12 05:15:36;;;;;;;28.80;13.87;;;;;;;5.89;70.36;101323.77;1780668;79;20967;-41
2021/04/12 05:18:41;;;;;;;27.50;14.15;;;;;;;5.90;70.27;101317.38;1780473;80;21315;-42
2021/04/12 05:21:31;;;;;;;25.70;13.98;;;;;;;5.92;70.07;101307.09;1779782;80;20962;-42
2021/04/12 05:24:16;;;;;;;25.90;13.95;;;;;;;5.94;70.20;101308.02;1780356;80;20947;-42
2021/04/12 05:27:20;;;;;;;32.13;15.20;;;;;;;5.96;70.00;101308.90;1780162;80;21018;-42
2021/04/12 05:30:11;;;;;;;22.50;13.50;;;;;;;5.99;69.82;101311.91;1780405;80;21012;-42
2021/04/12 05:33:08;;;;;;;20.75;13.20;;;;;;;6.01;70.09;101307.69;1780518;80;21200;-42
2021/04/12 05:36:05;;;;;;;27.25;14.65;;;;;;;6.03;70.03;101300.86;1780408;80;20959;-42
2021/04/12 05:39:23;;;;;;;20.30;12.63;;;;;;;6.03;70.03;101300.86;1777838;80;21523;-41
2021/04/12 05:42:25;;;;;;;21.30;12.60;;;;;;;6.08;69.64;101308.64;1690717;83;21030;-41
2021/04/12 05:45:35;;;;;;;25.90;13.15;;;;;;;6.09;69.94;101306.52;1690891;83;21035;-42
2021/04/12 05:48:45;;;;;;;23.50;13.05;;;;;;;6.10;70.07;101315.95;1771102;80;21542;-41
2021/04/12 05:51:39;;;;;;;26.45;12.93;;;;;;;6.11;70.09;101316.39;1780427;80;21014;-42
2021/04/12 05:54:18;;;;;;;24.12;13.20;;;;;;;6.14;70.10;101317.31;1780519;80;21136;-43
2021/04/12 05:57:10;;;;;;;28.85;13.70;;;;;;;6.18;70.01;101324.22;1780560;80;20950;-42
2021/04/12 06:00:20;;;;;;;23.25;13.53;;;;;;;6.19;70.17;101305.81;1780590;80;21002;-42
2021/04/12 06:03:13;;;;;;;22.82;12.82;;;;;;;6.23;70.29;101313.12;1780501;80;22383;-41
2021/04/12 06:06:18;;;;;;;22.05;13.62;;;;;;;6.28;70.34;101314.05;1780357;80;20955;-42
2021/04/12 06:09:09;;;;;;;21.62;12.98;;;;;;;6.35;70.37;101315.00;1780539;80;21002;-41
2021/04/12 06:11:48;;;;;;;22.13;13.68;;;;;;;6.40;70.33;101314.22;1780495;80;20950;-41
2021/04/12 06:14:54;;;;;;;24.05;12.75;;;;;;;6.48;70.43;101314.32;1780536;80;21030;-42
2021/04/12 06:18:00;;;;;;;24.75;13.22;;;;;;;6.57;70.23;101311.84;1780547;80;21376;-42
2021/04/12 06:20:58;;;;;;;25.43;12.68;;;;;;;6.69;69.99;101307.27;1780457;80;21038;-43
2021/04/12 06:23:42;;;;;;;30.10;12.25;;;;;;;6.93;69.71;101297.20;1847480;76;22745;-44
2021/04/12 06:26:50;;;;;;;20.77;12.10;;;;;;;7.01;69.33;101308.47;1817804;77;21033;-43
2021/04/12 06:29:45;;;;;;;26.73;14.38;;;;;;;7.11;68.86;101299.13;1817795;79;21145;-41
2021/04/12 06:32:50;;;;;;;22.93;13.10;;;;;;;7.24;68.34;101295.80;1790061;79;20978;-41
2021/04/12 06:35:48;;;;;;;22.98;12.25;;;;;;;7.30;68.31;101297.13;1785579;79;21002;-41
2021/04/12 06:38:36;;;;;;;22.35;11.28;;;;;;;7.38;68.06;101298.48;1785544;79;21034;-41
2021/04/12 06:41:27;;;;;;;23.15;12.68;;;;;;;7.45;67.79;101299.41;1732509;80;21077;-41
2021/04/12 06:44:35;;;;;;;19.17;12.10;;;;;;;7.48;67.65;101302.88;1785557;80;21184;-41
2021/04/12 06:47:33;;;;;;;25.75;12.88;;;;;;;7.52;67.75;101303.75;1785473;80;20989;-41
2021/04/12 06:50:35;;;;;;;21.17;13.43;;;;;;;7.57;67.72;101303.34;1785552;80;21002;-41
2021/04/12 06:53:50;;;;;;;22.02;12.43;;;;;;;7.60;67.78;101299.95;1741165;80;21479;-40
2021/04/12 06:57:01;;;;;;;23.10;12.03;;;;;;;7.65;67.90;101306.44;1785522;79;20986;-41
2021/04/12 06:59:43;;;;;;;24.52;12.05;;;;;;;7.73;67.80;101306.05;1785515;80;21203;-42
2021/04/12 07:02:32;;;;;;;21.42;11.88;;;;;;;7.83;67.62;101314.30;1783209;80;20963;-42
2021/04/12 07:05:23;;;;;;;24.05;11.88;;;;;;;7.90;67.18;101311.31;1785479;80;21049;-46
2021/04/12 07:08:32;;;;;;;19.40;11.57;;;;;;;7.95;67.17;101310.06;1785506;80;21005;-41
2021/04/12 07:11:44;;;;;;;23.75;12.23;;;;;;;8.06;67.04;101300.66;1785514;80;20922;-42
2021/04/12 07:15:06;;;;;;;22.82;12.45;;;;;;;8.18;67.01;101303.73;1785498;80;21356;-41
2021/04/12 07:18:03;;;;;;;24.50;11.68;;;;;;;8.33;66.58;101302.53;1785507;80;21030;-42
2021/04/12 07:21:16;;;;;;;25.70;12.53;;;;;;;8.45;66.29;101291.39;1755319;80;21523;-42
2021/04/12 07:24:22;;;;;;;19.77;11.65;;;;;;;8.53;65.97;101296.62;1785445;79;20935;-41
2021/04/12 07:27:19;;;;;;;20.27;11.05;;;;;;;8.55;65.55;101292.73;1698739;82;21180;-41
2021/04/12 07:30:16;;;;;;;26.37;12.60;;;;;;;8.57;65.51;101293.61;1785528;80;21356;-41
2021/04/12 07:33:22;;;;;;;26.33;12.63;;;;;;;8.60;65.32;101293.20;1785612;80;21073;-41
2021/04/12 07:36:14;;;;;;;26.15;11.90;;;;;;;8.62;65.10;101294.06;1784907;80;20884;-41
2021/04/12 07:39:13;;;;;;;22.17;10.78;;;;;;;8.66;65.18;101288.49;1784953;80;20966;-42
2021/04/12 07:42:12;;;;;;;20.62;10.75;;;;;;;8.73;65.60;101288.09;1783338;80;20990;-42
2021/04/12 07:45:21;;;;;;;20.70;11.03;;;;;;;8.82;65.55;101283.34;1784993;80;21357;-42
2021/04/12 07:48:36;;;;;;;17.82;10.60;;;;;;;8.92;65.38;101279.94;1785060;80;21603;-41
2021/04/12 07:51:49;;;;;;;20.88;11.22;;;;;;;9.00;64.91;101283.83;1784483;80;21006;-42
2021/04/12 07:54:48;;;;;;;21.33;10.55;;;;;;;9.03;65.01;101279.52;1784930;80;21326;-41
2021/04/12 07:57:23;;;;;;;23.52;10.75;;;;;;;9.10;64.28;101276.52;1784969;80;21594;-42
2021/04/12 08:00:26;;;;;;;23.95;12.20;;;;;;;9.11;64.51;101281.27;1784710;80;21253;-42
2021/04/12 08:03:29;;;;;;;24.55;12.75;;;;;;;9.15;64.35;101289.00;1784868;80;21013;-41
2021/04/12 08:06:41;;;;;;;29.48;11.20;;;;;;;9.22;64.28;101282.13;1784132;80;20938;-41
2021/04/12 08:09:46;;;;;;;22.15;11.48;;;;;;;9.28;64.44;101279.97;1784924;80;21021;-42
2021/04/12 08:12:36;;;;;;;16.87;10.72;;;;;;;9.33;64.44;101282.13;1783705;80;21026;-41
2021/04/12 08:15:32;;;;;;;18.07;10.00;;;;;;;9.35;64.25;101279.11;1783677;80;21382;-42
2021/04/12 08:18:37;;;;;;;23.42;10.43;;;;;;;9.36;63.97;101276.11;1766688;80;21595;-41
2021/04/12 08:21:12;;;;;;;24.10;11.28;;;;;;;9.37;64.30;101270.92;1784896;80;21432;-42
2021/04/12 08:24:07;;;;;;;22.77;10.20;;;;;;;9.38;64.45;101265.34;1784812;79;20990;-41
2021/04/12 08:27:15;;;;;;;20.08;10.40;;;;;;;9.41;64.42;101263.59;1752677;80;20959;-41
2021/04/12 08:30:08;;;;;;;19.52;10.63;;;;;;;9.47;64.32;101264.91;1785093;80;21248;-41
2021/04/12 08:33:09;;;;;;;25.40;12.18;;;;;;;9.56;64.23;101267.87;1784866;80;21014;-42
2021/04/12 08:36:34;;;;;;;28.30;12.85;;;;;;;9.63;64.18;101257.98;1761132;80;21022;-41
2021/04/12 08:39:28;;;;;;;26.48;11.83;;;;;;;9.75;64.23;101254.93;1784879;80;20895;-42
2021/04/12 08:42:27;;;;;;;26.60;10.68;;;;;;;9.91;64.11;101264.38;1784887;80;21046;-42
2021/04/12 08:45:34;;;;;;;25.52;10.68;;;;;;;10.03;63.39;101253.55;1784865;80;21198;-41
2021/04/12 08:48:28;;;;;;;;;;;;;;;10.13;63.28;101247.92;1762538;80;21025;-41
2021/04/12 08:51:13;;;;;;;22.13;10.65;;;;;;;10.26;62.91;101256.08;1784902;80;20139;-41
2021/04/12 08:54:14;;;;;;;29.10;10.95;;;;;;;10.37;62.73;101240.50;1784868;80;20989;-42
2021/04/12 08:57:05;;;;;;;23.75;9.90;;;;;;;10.53;62.12;101234.83;1784895;80;20931;-42
2021/04/12 09:00:04;;;;;;;19.30;9.75;;;;;;;10.69;61.97;101236.02;1784690;79;21365;-42
2021/04/12 09:02:59;;;;;;;19.95;10.18;;;;;;;10.78;61.27;101225.16;1752272;80;20963;-43
2021/04/12 09:05:54;;;;;;;21.52;10.30;;;;;;;10.87;61.21;101225.53;1784841;80;21590;-41
2021/04/12 09:08:48;;;;;;;17.30;9.88;;;;;;;11.02;60.63;101228.89;1784842;80;21053;-41
2021/04/12 09:11:38;;;;;;;15.40;10.03;;;;;;;11.12;60.68;101224.50;1784850;80;21010;-42
2021/04/12 09:14:49;;;;;;;17.32;9.68;;;;;;;11.15;60.04;101221.88;1784916;80;21187;-41
2021/04/12 09:17:43;;;;;;;17.73;9.73;;;;;;;11.16;59.97;101219.71;1784847;79;20990;-43
2021/04/12 09:20:27;;;;;;;21.62;10.28;;;;;;;11.30;60.03;101211.81;1752629;80;20927;-42
2021/04/12 09:23:15;;;;;;;16.48;10.53;;;;;;;11.55;59.84;101209.81;1784849;80;21475;-43
2021/04/12 09:26:07;;;;;;;22.55;10.48;;;;;;;11.93;58.74;101207.25;1784858;80;21128;-42
2021/04/12 09:29:00;;;;;;;27.62;11.08;;;;;;;12.35;58.63;101213.65;1784852;80;21471;-46
2021/04/12 09:31:49;;;;;;;22.10;9.53;;;;;;;12.83;58.06;101207.77;1784751;79;21089;-43
2021/04/12 09:34:41;;;;;;;24.05;10.20;;;;;;;13.47;56.84;101208.86;1784871;79;20997;-41
2021/04/12 09:37:52;;;;;;;22.35;10.65;;;;;;;13.97;54.95;101207.90;1784829;80;21058;-42
2021/04/12 09:41:17;;;;;;;26.68;10.00;;;;;;;14.23;53.25;101203.89;1784837;80;20927;-43
2021/04/12 09:44:08;;;;;;;26.73;10.20;;;;;;;14.47;52.80;101202.50;1784806;80;21199;-42
2021/04/12 09:47:25;;;;;;;23.77;10.88;;;;;;;14.64;52.38;101207.31;1784852;79;20982;-42
2021/04/12 09:50:33;;;;;;;20.45;10.93;;;;;;;14.81;52.09;101206.09;1741151;80;20939;-41
2021/04/12 09:53:39;;;;;;;24.85;11.38;;;;;;;14.80;51.61;101201.78;1784833;80;21479;-42
2021/04/12 09:56:34;;;;;;;29.02;11.55;;;;;;;14.98;51.93;101207.41;1753153;80;21626;-42
2021/04/12 09:59:38;;;;;;;20.23;11.22;;;;;;;15.11;51.66;101197.09;1783586;80;21367;-41
2021/04/12 10:02:42;;;;;;;28.65;11.43;;;;;;;15.05;51.53;101196.80;1784711;80;21006;-42
2021/04/12 10:05:52;;;;;;;26.90;11.10;;;;;;;14.90;52.07;101203.69;1784841;79;21069;-42
2021/04/12 10:08:36;;;;;;;33.38;10.93;;;;;;;14.88;51.93;101201.13;1784821;80;20903;-43
2021/04/12 10:11:11;;;;;;;28.12;10.80;;;;;;;14.75;51.89;101209.70;1784862;80;21014;-42
2021/04/12 10:14:12;;;;;;;23.00;10.88;;;;;;;14.63;52.36;101203.00;1784972;80;21356;-42
2021/04/12 10:16:57;;;;;;;26.35;10.98;;;;;;;14.40;52.57;101205.27;1784759;80;20966;-42
2021/04/12 10:19:35;;;;;;;29.98;11.08;;;;;;;14.12;53.17;101218.44;1784659;80;21022;-41
2021/04/12 10:22:10;;;;;;;30.25;11.88;;;;;;;13.89;54.00;101221.09;1778570;80;21093;-42
2021/04/12 10:24:59;;;;;;;22.98;11.68;;;;;;;13.76;54.45;101219.61;1784882;79;21554;-41
2021/04/12 10:27:52;;;;;;;24.50;12.33;;;;;;;13.62;55.04;101222.48;1784849;79;21363;-40
2021/04/12 10:30:31;;;;;;;26.95;12.70;;;;;;;13.61;55.22;101227.27;1752346;79;20990;-41
2021/04/12 10:33:03;;;;;;;29.35;12.20;;;;;;;13.52;55.72;101227.45;1784826;80;20982;-41
2021/04/12 10:35:39;;;;;;;24.75;13.10;;;;;;;13.43;56.13;101226.71;1784819;80;21140;-41
2021/04/12 10:38:27;;;;;;;28.45;13.68;;;;;;;13.30;56.71;101227.34;1783272;80;21013;-41
2021/04/12 10:41:23;;;;;;;22.60;13.18;;;;;;;13.16;57.19;101228.04;1784929;79;21037;-41
2021/04/12 10:44:16;;;;;;;16.90;13.10;;;;;;;13.02;57.64;101232.17;1781381;80;21018;-42
2021/04/12 10:47:05;;;;;;;31.15;13.55;;;;;;;12.93;57.71;101224.92;1784892;79;21484;-42
2021/04/12 10:50:00;;;;;;;26.02;13.03;;;;;;;12.85;58.64;101235.88;1783970;80;21049;-41
2021/04/12 10:52:55;;;;;;;18.42;12.47;;;;;;;12.82;58.44;101235.06;1784841;80;21075;-42
2021/04/12 10:55:43;;;;;;;45.43;17.55;;;;;;;12.77;58.65;101237.75;1768359;80;21358;-41
2021/04/12 10:58:43;;;;;;;29.82;15.78;;;;;;;12.76;59.24;101236.03;1784236;80;20937;-41
2021/04/12 11:01:31;;;;;;;42.98;18.98;;;;;;;12.77;59.07;101241.19;1784823;80;21002;-41
2021/04/12 11:04:31;;;;;;;30.57;15.18;;;;;;;12.74;58.99;101240.36;1784742;80;20983;-41
2021/04/12 11:07:20;;;;;;;22.22;14.23;;;;;;;12.71;59.20;101242.59;1784832;80;21061;-40
2021/04/12 11:09:55;;;;;;;26.05;13.78;;;;;;;12.65;59.20;101243.53;1784923;80;21426;-41
2021/04/12 11:13:07;;;;;;;26.20;14.45;;;;;;;12.56;59.65;101244.09;1784616;80;21081;-41
2021/04/12 11:16:12;;;;;;;27.20;13.85;;;;;;;12.50;60.12;101242.01;1785051;80;21255;-42
2021/04/12 11:21:08;;;;;;;33.98;14.03;;;;;;;12.51;60.36;101240.28;1776953;79;23179;-42
2021/04/12 11:24:32;;;;;;;25.68;12.88;;;;;;;12.50;60.56;101244.61;1749425;82;21077;-41
2021/04/12 11:27:40;;;;;;;28.95;13.62;;;;;;;12.55;60.39;101243.25;1749454;82;21266;-42
2021/04/12 11:30:14;;;;;;;26.23;12.33;;;;;;;12.56;60.41;101242.38;1749411;82;21094;-42
2021/04/12 11:33:00;;;;;;;24.47;12.95;;;;;;;12.64;60.26;101237.91;1719600;83;21120;-41
2021/04/12 11:36:13;;;;;;;28.70;13.07;;;;;;;12.64;60.14;101234.02;1719840;82;21019;-41
2021/04/12 11:38:49;;;;;;;22.50;12.90;;;;;;;12.65;60.14;101237.49;1719582;83;20998;-42
2021/04/12 11:41:22;;;;;;;25.15;13.43;;;;;;;12.58;60.30;101237.14;1719621;83;21363;-42
2021/04/12 11:43:54;;;;;;;26.35;13.88;;;;;;;12.57;60.29;101236.30;1719500;83;21022;-43
2021/04/12 11:47:00;;;;;;;26.07;13.00;;;;;;;12.59;60.36;101234.95;1719556;83;20903;-41
2021/04/12 11:50:02;;;;;;;32.70;14.13;;;;;;;12.58;60.42;101235.41;1713704;83;21094;-42
2021/04/12 11:52:56;;;;;;;32.30;13.60;;;;;;;12.57;60.39;101235.00;1719560;83;21643;-43
2021/04/12 11:55:44;;;;;;;30.80;13.53;;;;;;;12.54;60.65;101240.23;1719561;83;21389;-43
2021/04/12 11:58:20;;;;;;;25.43;13.65;;;;;;;12.56;60.92;101231.98;1719481;83;21050;-43
2021/04/12 12:01:29;;;;;;;38.88;14.78;;;;;;;12.63;60.96;101231.00;1719462;83;20971;-43
2021/04/12 12:04:22;;;;;;;38.55;14.78;;;;;;;12.66;60.89;101235.31;1719491;82;21042;-41
2021/04/12 12:07:08;;;;;;;25.00;13.45;;;;;;;12.69;61.00;101231.36;1719598;83;21018;-41
2021/04/12 12:10:07;;;;;;;23.47;13.13;;;;;;;12.70;60.91;101225.71;1847642;76;22746;-43
2021/04/12 12:13:02;;;;;;;31.20;15.58;;;;;;;12.59;61.26;101229.34;1817605;78;21010;-41
2021/04/12 12:16:11;;;;;;;25.43;14.85;;;;;;;12.54;61.35;101227.25;1817818;78;21412;-42
2021/04/12 12:18:44;;;;;;;27.32;15.88;;;;;;;12.47;61.14;101225.60;1817751;79;20923;-42
2021/04/12 12:21:22;;;;;;;29.30;16.20;;;;;;;12.35;61.56;101226.20;1817876;79;21453;-42
2021/04/12 12:24:04;;;;;;;33.67;15.90;;;;;;;12.31;61.72;101224.53;1817681;78;21638;-42
2021/04/12 12:26:45;;;;;;;24.20;14.13;;;;;;;12.24;62.02;101220.28;1817805;79;20994;-42
2021/04/12 12:29:33;;;;;;;29.05;15.85;;;;;;;12.25;62.22;101222.03;1817747;78;22270;-42
2021/04/12 12:32:18;;;;;;;28.70;16.02;;;;;;;12.22;62.42;101222.05;1764757;79;20986;-41
2021/04/12 12:35:09;;;;;;;28.85;15.50;;;;;;;12.27;62.43;101222.86;1785524;80;20986;-42
2021/04/12 12:38:10;;;;;;;27.60;16.23;;;;;;;12.39;62.24;101215.77;1847590;76;22753;-42
2021/04/12 12:40:55;;;;;;;38.40;18.75;;;;;;;12.39;62.32;101213.17;1791975;79;20994;-42
2021/04/12 12:43:33;;;;;;;31.25;16.90;;;;;;;12.44;62.04;101208.77;1817781;77;21341;-42
2021/04/12 12:46:17;;;;;;;31.10;15.95;;;;;;;12.47;61.95;101207.00;1817845;79;21627;-42
2021/04/12 12:48:56;;;;;;;31.02;16.48;;;;;;;12.49;61.78;101209.56;1784958;79;20957;-41
2021/04/12 12:51:33;;;;;;;30.55;16.00;;;;;;;12.53;61.80;101208.66;1817762;79;20872;-41
2021/04/12 12:54:18;;;;;;;25.68;15.25;;;;;;;12.57;61.75;101210.33;1817783;78;21037;-42
2021/04/12 12:56:45;;;;;;;24.47;15.25;;;;;;;12.60;62.02;101211.58;1817572;77;21360;-43
2021/04/12 12:59:25;;;;;;;25.57;14.75;;;;;;;12.63;62.13;101212.83;1817694;79;20955;-41
2021/04/12 13:01:54;;;;;;;29.77;16.55;;;;;;;12.64;61.86;101219.73;1786822;79;21002;-42
2021/04/12 13:04:28;;;;;;;38.50;16.48;;;;;;;12.65;61.66;101218.02;1786674;79;21468;-43
2021/04/12 13:06:59;;;;;;;28.40;16.95;;;;;;;12.66;61.58;101215.83;1817822;78;21010;-42
2021/04/12 13:09:31;;;;;;;28.00;16.27;;;;;;;12.65;61.19;101222.75;1815958;79;22267;-42
2021/04/12 13:12:13;;;;;;;33.33;17.27;;;;;;;12.59;61.63;101218.08;1817656;79;20959;-43
2021/04/12 13:14:51;;;;;;;40.17;19.02;;;;;;;12.54;61.72;101227.25;1817680;78;21072;-42
2021/04/12 13:17:32;;;;;;;26.05;17.55;;;;;;;12.51;61.85;101220.81;1817642;79;21018;-42
2021/04/12 13:20:22;;;;;;;31.02;16.45;;;;;;;12.54;61.59;101229.85;1817769;79;20967;-41